Terminal Aerodrome Forecast
Issued by NWS Mobile, AL

Home | Current Version | Previous Version | Text Only | Print | Product List | Glossary On
Versions: 1 2 3 4 5 6 7 8 9 10 11 12 13
000
FTUS44 KMOB 172330
TAFPNS
TAF
KPNS 172330Z 1800/1824 24008KT P6SM FEW040 SCT250
     FM180700 28005KT P6SM FEW030 FEW250
     FM181900 22009KT P6SM VCTS SCT040CB SCT250=

USA.gov is the U.S. government's official web portal to all federal, state and local government web resources and services.